Terminal Aerodrome Forecast
Issued by NWS Wichita, KS

Home | Current Version | Previous Version | Text Only | Print | Product List | Glossary Off
Versions: 1 2 3 4 5 6 7 8 9 10 11 12 13 14 15 16 17 18

000
FTUS43 KICT 201800 AAA
TAFICT
TAF AMD
KICT 201847Z 2019/2118 19012KT P6SM VCSH SCT050 BKN110
     FM202100 17015KT P6SM VCSH BKN050
     FM210100 17010KT P6SM VCTS SCT030 BKN050CB
     FM210500 22012KT P6SM VCTS BKN030CB
     FM211200 34014KT P6SM VCSH BKN025
     FM211600 36012KT P6SM SCT025 BKN060=

USA.gov is the U.S. government's official web portal to all federal, state and local government web resources and services.